CGPZO -KGWS
Flight info
| Callsign | CGPZO |
|---|---|
| Flight time | N/A |
| Altitude | VFR |
| Route | |
| Aircraft | PA34/L-VGD/C |
Departure
| Time | N/A |
|---|---|
| Airport | - |
Arrival
| Time | 2026-04-22 00:32 |
|---|---|
| Airport | Glenwood Springs Municipal Airport (KGWS) |
| Time | Latitude | Longitude | Altitude | Speed | Heading |
|---|---|---|---|---|---|
| 2026-04-22 00:21 | 39.31826 | -106.91256 | 10786 ft | 119 kts | 329° |
| 2026-04-22 00:21 | 39.32495 | -106.91848 | 11040 ft | 116 kts | 316° |
| 2026-04-22 00:22 | 39.33113 | -106.92490 | 11309 ft | 115 kts | 320° |
| 2026-04-22 00:22 | 39.33750 | -106.93106 | 11545 ft | 114 kts | 319° |
| 2026-04-22 00:22 | 39.34365 | -106.93771 | 11765 ft | 115 kts | 319° |
| 2026-04-22 00:22 | 39.35006 | -106.94375 | 11994 ft | 114 kts | 322° |
| 2026-04-22 00:23 | 39.35578 | -106.95037 | 12202 ft | 107 kts | 313° |
| 2026-04-22 00:23 | 39.36057 | -106.95802 | 12277 ft | 113 kts | 303° |
| 2026-04-22 00:23 | 39.36478 | -106.96704 | 12319 ft | 119 kts | 301° |
| 2026-04-22 00:23 | 39.36912 | -106.97591 | 12422 ft | 119 kts | 303° |
| 2026-04-22 00:24 | 39.37327 | -106.98485 | 12616 ft | 108 kts | 297° |
| 2026-04-22 00:24 | 39.37605 | -106.99443 | 12615 ft | 119 kts | 287° |
| 2026-04-22 00:24 | 39.37764 | -107.00529 | 12638 ft | 122 kts | 280° |
| 2026-04-22 00:24 | 39.37857 | -107.01643 | 12621 ft | 128 kts | 272° |
| 2026-04-22 00:25 | 39.37758 | -107.02779 | 12666 ft | 127 kts | 260° |
| 2026-04-22 00:25 | 39.37495 | -107.03886 | 12672 ft | 129 kts | 251° |
| 2026-04-22 00:25 | 39.37249 | -107.05000 | 12675 ft | 131 kts | 260° |
| 2026-04-22 00:25 | 39.37166 | -107.06213 | 12547 ft | 141 kts | 269° |
| 2026-04-22 00:26 | 39.37239 | -107.07482 | 12475 ft | 142 kts | 276° |
| 2026-04-22 00:26 | 39.37392 | -107.08772 | 12357 ft | 146 kts | 276° |
| 2026-04-22 00:26 | 39.37473 | -107.10073 | 12249 ft | 147 kts | 275° |
| 2026-04-22 00:26 | 39.37623 | -107.11375 | 12165 ft | 144 kts | 280° |
| 2026-04-22 00:27 | 39.37913 | -107.12625 | 11967 ft | 148 kts | 289° |
| 2026-04-22 00:27 | 39.38342 | -107.13838 | 11799 ft | 151 kts | 295° |
| 2026-04-22 00:27 | 39.38883 | -107.15006 | 11666 ft | 150 kts | 301° |
| 2026-04-22 00:27 | 39.39423 | -107.16156 | 11526 ft | 149 kts | 297° |
| 2026-04-22 00:28 | 39.39929 | -107.17317 | 11378 ft | 148 kts | 298° |
| 2026-04-22 00:28 | 39.40455 | -107.18472 | 11240 ft | 148 kts | 300° |
| 2026-04-22 00:28 | 39.41018 | -107.19575 | 11092 ft | 148 kts | 303° |
| 2026-04-22 00:28 | 39.41654 | -107.20628 | 10911 ft | 150 kts | 309° |
| 2026-04-22 00:29 | 39.42347 | -107.21632 | 10715 ft | 149 kts | 310° |
| 2026-04-22 00:29 | 39.43058 | -107.22639 | 10451 ft | 152 kts | 311° |
| 2026-04-22 00:29 | 39.43771 | -107.23626 | 10247 ft | 147 kts | 313° |
| 2026-04-22 00:29 | 39.44459 | -107.24572 | 9640 ft | 148 kts | 309° |
| 2026-04-22 00:30 | 39.45106 | -107.25615 | 8956 ft | 152 kts | 308° |
| 2026-04-22 00:30 | 39.45765 | -107.26617 | 8322 ft | 146 kts | 311° |
| 2026-04-22 00:30 | 39.46435 | -107.27500 | 7734 ft | 128 kts | 315° |
| 2026-04-22 00:30 | 39.47058 | -107.28213 | 7253 ft | 120 kts | 320° |
| 2026-04-22 00:31 | 39.47710 | -107.28884 | 6838 ft | 119 kts | 323° |
| 2026-04-22 00:31 | 39.48391 | -107.29443 | 6556 ft | 117 kts | 329° |
| 2026-04-22 00:31 | 39.49086 | -107.29932 | 6378 ft | 110 kts | 332° |
| 2026-04-22 00:31 | 39.49753 | -107.30364 | 6107 ft | 100 kts | 331° |
| 2026-04-22 00:32 | 39.50326 | -107.30739 | 5981 ft | 81 kts | 333° |
| 2026-04-22 00:32 | 39.50751 | -107.31014 | 5984 ft | 55 kts | 334° |
| 2026-04-22 00:32 | 39.50987 | -107.31160 | 5986 ft | 13 kts | 347° |
| 2026-04-22 00:32 | 39.51007 | -107.31152 | 5985 ft | 0 kts | 62° |
| 2026-04-22 00:33 | 39.51021 | -107.31115 | 5984 ft | 3 kts | 56° |
| 2026-04-22 00:33 | 39.51025 | -107.31111 | 5984 ft | 0 kts | 10° |
| 2026-04-22 00:34 | 39.51026 | -107.31111 | 5984 ft | 0 kts | 335° |
| 2026-04-22 00:34 | 39.51026 | -107.31114 | 5984 ft | 0 kts | 243° |
| 2026-04-22 00:37 | 39.51015 | -107.31133 | 5983 ft | 6 kts | 233° |
| 2026-04-22 00:37 | 39.50981 | -107.31160 | 5984 ft | 7 kts | 154° |
| 2026-04-22 00:37 | 39.50946 | -107.31137 | 5984 ft | 28 kts | 154° |
| 2026-04-22 00:37 | 39.50569 | -107.30898 | 5979 ft | 86 kts | 155° |
| 2026-04-22 00:38 | 39.50009 | -107.30484 | 6160 ft | 94 kts | 156° |
| 2026-04-22 00:38 | 39.49436 | -107.30119 | 6462 ft | 91 kts | 168° |
| 2026-04-22 00:38 | 39.48828 | -107.29888 | 6733 ft | 92 kts | 167° |
| 2026-04-22 00:38 | 39.48224 | -107.29514 | 6953 ft | 100 kts | 156° |
| 2026-04-22 00:39 | 39.47694 | -107.29049 | 7325 ft | 89 kts | 144° |
| 2026-04-22 00:39 | 39.47269 | -107.28410 | 7524 ft | 100 kts | 121° |
| 2026-04-22 00:39 | 39.47257 | -107.27551 | 7793 ft | 97 kts | 70° |
| 2026-04-22 00:39 | 39.47492 | -107.26723 | 8042 ft | 100 kts | 74° |
| 2026-04-22 00:40 | 39.47630 | -107.25843 | 8301 ft | 103 kts | 82° |
| 2026-04-22 00:40 | 39.47799 | -107.24838 | 8360 ft | 125 kts | 75° |
| 2026-04-22 00:40 | 39.48016 | -107.23727 | 8487 ft | 131 kts | 80° |
| 2026-04-22 00:40 | 39.48026 | -107.22598 | 8816 ft | 115 kts | 102° |
| 2026-04-22 00:41 | 39.47914 | -107.21587 | 9024 ft | 118 kts | 98° |
| 2026-04-22 00:41 | 39.47883 | -107.20540 | 9282 ft | 114 kts | 90° |
| 2026-04-22 00:41 | 39.48006 | -107.19536 | 9543 ft | 113 kts | 78° |
| 2026-04-22 00:41 | 39.48220 | -107.18538 | 9732 ft | 117 kts | 78° |
| 2026-04-22 00:42 | 39.48443 | -107.17481 | 9833 ft | 127 kts | 76° |
| 2026-04-22 00:42 | 39.48763 | -107.16387 | 9963 ft | 133 kts | 68° |
| 2026-04-22 00:42 | 39.49191 | -107.15256 | 9957 ft | 144 kts | 64° |
| 2026-04-22 00:42 | 39.49681 | -107.14135 | 10034 ft | 143 kts | 62° |
| 2026-04-22 00:43 | 39.50187 | -107.13030 | 10008 ft | 142 kts | 59° |
| 2026-04-22 00:43 | 39.50716 | -107.12000 | 10101 ft | 133 kts | 56° |
| 2026-04-22 00:43 | 39.51257 | -107.11058 | 10176 ft | 129 kts | 56° |
| 2026-04-22 00:43 | 39.51787 | -107.10105 | 10197 ft | 129 kts | 58° |
| 2026-04-22 00:44 | 39.52328 | -107.09146 | 10260 ft | 136 kts | 55° |
| 2026-04-22 00:44 | 39.52948 | -107.08175 | 10324 ft | 142 kts | 51° |
| 2026-04-22 00:44 | 39.53606 | -107.07197 | 10380 ft | 145 kts | 52° |
| 2026-04-22 00:44 | 39.54271 | -107.06208 | 10377 ft | 148 kts | 51° |
| 2026-04-22 00:45 | 39.54961 | -107.05202 | 10243 ft | 151 kts | 50° |
| 2026-04-22 00:45 | 39.55683 | -107.04198 | 10171 ft | 150 kts | 50° |
| 2026-04-22 00:45 | 39.56409 | -107.03227 | 10069 ft | 151 kts | 47° |
| 2026-04-22 00:45 | 39.57153 | -107.02238 | 9876 ft | 154 kts | 51° |
| 2026-04-22 00:46 | 39.57804 | -107.01171 | 9752 ft | 149 kts | 56° |
| 2026-04-22 00:46 | 39.58456 | -107.00120 | 9480 ft | 150 kts | 52° |
| 2026-04-22 00:46 | 39.59155 | -106.99107 | 9156 ft | 154 kts | 49° |
| 2026-04-22 00:46 | 39.59875 | -106.98047 | 8810 ft | 159 kts | 52° |
| 2026-04-22 00:47 | 39.60547 | -106.96908 | 8424 ft | 161 kts | 55° |
| 2026-04-22 00:47 | 39.61204 | -106.95739 | 8052 ft | 161 kts | 53° |
| 2026-04-22 00:47 | 39.61822 | -106.94569 | 7827 ft | 153 kts | 63° |
| 2026-04-22 00:47 | 39.62093 | -106.93261 | 7638 ft | 148 kts | 84° |
| 2026-04-22 00:48 | 39.62197 | -106.91983 | 7554 ft | 137 kts | 90° |
| 2026-04-22 00:48 | 39.62242 | -106.90790 | 7489 ft | 128 kts | 94° |
| 2026-04-22 00:48 | 39.62291 | -106.89637 | 7611 ft | 126 kts | 89° |
| 2026-04-22 00:48 | 39.62322 | -106.88465 | 7563 ft | 138 kts | 95° |
| 2026-04-22 00:49 | 39.62365 | -106.87213 | 7447 ft | 136 kts | 85° |
| 2026-04-22 00:49 | 39.62754 | -106.86247 | 7623 ft | 113 kts | 44° |
| 2026-04-22 00:49 | 39.63438 | -106.85778 | 7601 ft | 113 kts | 12° |
| 2026-04-22 00:49 | 39.64230 | -106.85671 | 7520 ft | 110 kts | 357° |
| 2026-04-22 00:50 | 39.64748 | -106.86153 | 7298 ft | 95 kts | 278° |
| 2026-04-22 00:50 | 39.64697 | -106.86985 | 7156 ft | 89 kts | 269° |
| 2026-04-22 00:50 | 39.64646 | -106.87777 | 7039 ft | 87 kts | 264° |
| 2026-04-22 00:50 | 39.64585 | -106.88559 | 6886 ft | 88 kts | 267° |
| 2026-04-22 00:51 | 39.64523 | -106.89325 | 6755 ft | 86 kts | 265° |
| 2026-04-22 00:51 | 39.64441 | -106.90076 | 6659 ft | 83 kts | 263° |
| 2026-04-22 00:51 | 39.64360 | -106.90795 | 6606 ft | 75 kts | 261° |
| 2026-04-22 00:51 | 39.64301 | -106.91373 | 6602 ft | 39 kts | 259° |
| 2026-04-22 00:52 | 39.64233 | -106.91587 | 6603 ft | 17 kts | 179° |
| 2026-04-22 00:52 | 39.64172 | -106.91538 | 6603 ft | 12 kts | 79° |
| 2026-04-22 00:52 | 39.64190 | -106.91386 | 6603 ft | 25 kts | 82° |
| 2026-04-22 00:52 | 39.64221 | -106.91093 | 6603 ft | 36 kts | 82° |
| 2026-04-22 00:53 | 39.64252 | -106.90799 | 6603 ft | 29 kts | 80° |
| 2026-04-22 00:53 | 39.64280 | -106.90563 | 6603 ft | 23 kts | 82° |
| 2026-04-22 00:53 | 39.64303 | -106.90356 | 6603 ft | 24 kts | 82° |
| 2026-04-22 00:53 | 39.64326 | -106.90132 | 6602 ft | 19 kts | 81° |
| 2026-04-22 00:54 | 39.64356 | -106.90025 | 6602 ft | 11 kts | 35° |
| 2026-04-22 00:54 | 39.64441 | -106.90095 | 6602 ft | 26 kts | 259° |
| 2026-04-22 00:54 | 39.64385 | -106.90591 | 6603 ft | 82 kts | 262° |
| 2026-04-22 00:54 | 39.64289 | -106.91390 | 6756 ft | 96 kts | 265° |
| 2026-04-22 00:55 | 39.64199 | -106.92242 | 7052 ft | 95 kts | 263° |
| 2026-04-22 00:55 | 39.63799 | -106.92822 | 7346 ft | 100 kts | 191° |
| 2026-04-22 00:55 | 39.62626 | -106.91907 | 7870 ft | 119 kts | 99° |
| 2026-04-22 00:56 | 39.62564 | -106.90828 | 8155 ft | 118 kts | 98° |
| 2026-04-22 00:56 | 39.62371 | -106.89826 | 8512 ft | 111 kts | 110° |
| 2026-04-22 00:56 | 39.62180 | -106.88898 | 8822 ft | 111 kts | 103° |
| 2026-04-22 00:56 | 39.62050 | -106.87917 | 9118 ft | 110 kts | 101° |
| 2026-04-22 00:57 | 39.61982 | -106.86910 | 9384 ft | 114 kts | 98° |
| 2026-04-22 00:57 | 39.61927 | -106.85915 | 9711 ft | 109 kts | 104° |
| 2026-04-22 00:57 | 39.61719 | -106.84963 | 9968 ft | 111 kts | 110° |
| 2026-04-22 00:57 | 39.61669 | -106.83975 | 10252 ft | 111 kts | 90° |
| 2026-04-22 00:58 | 39.61743 | -106.83009 | 10571 ft | 109 kts | 95° |
| 2026-04-22 00:58 | 39.61756 | -106.81976 | 10761 ft | 123 kts | 93° |
| 2026-04-22 00:58 | 39.61844 | -106.80870 | 11088 ft | 121 kts | 90° |
| 2026-04-22 00:58 | 39.61989 | -106.79797 | 11402 ft | 122 kts | 83° |
| 2026-04-22 00:59 | 39.62195 | -106.78726 | 11694 ft | 124 kts | 83° |
| 2026-04-22 00:59 | 39.62412 | -106.77635 | 11956 ft | 130 kts | 77° |
| 2026-04-22 00:59 | 39.62811 | -106.76444 | 11926 ft | 158 kts | 59° |
| 2026-04-22 00:59 | 39.63538 | -106.75302 | 12036 ft | 165 kts | 44° |
| 2026-04-22 01:00 | 39.64407 | -106.74387 | 12199 ft | 161 kts | 36° |
| 2026-04-22 01:00 | 39.65293 | -106.73409 | 12051 ft | 175 kts | 51° |
| 2026-04-22 01:00 | 39.65790 | -106.72011 | 12032 ft | 174 kts | 80° |
| 2026-04-22 01:00 | 39.65866 | -106.70422 | 11903 ft | 179 kts | 93° |
| 2026-04-22 01:01 | 39.65772 | -106.68812 | 11786 ft | 180 kts | 97° |
| 2026-04-22 01:01 | 39.65622 | -106.67213 | 11816 ft | 173 kts | 99° |
| 2026-04-22 01:01 | 39.65434 | -106.65691 | 11819 ft | 171 kts | 101° |
| 2026-04-22 01:01 | 39.65225 | -106.64181 | 11803 ft | 170 kts | 103° |
| 2026-04-22 01:02 | 39.65015 | -106.62655 | 11773 ft | 171 kts | 100° |
| 2026-04-22 01:02 | 39.64817 | -106.61146 | 11769 ft | 171 kts | 103° |
| 2026-04-22 01:02 | 39.64552 | -106.59650 | 11833 ft | 168 kts | 104° |
| 2026-04-22 01:02 | 39.64304 | -106.58172 | 11840 ft | 170 kts | 103° |
| 2026-04-22 01:03 | 39.64089 | -106.56651 | 11822 ft | 173 kts | 101° |
| 2026-04-22 01:03 | 39.63872 | -106.55119 | 11848 ft | 172 kts | 103° |
| 2026-04-22 01:03 | 39.63611 | -106.53612 | 11884 ft | 171 kts | 106° |
| 2026-04-22 01:03 | 39.63210 | -106.52158 | 11858 ft | 173 kts | 116° |
| 2026-04-22 01:04 | 39.62623 | -106.50790 | 11838 ft | 174 kts | 121° |
| 2026-04-22 01:04 | 39.62019 | -106.49441 | 11866 ft | 172 kts | 123° |
| 2026-04-22 01:04 | 39.61366 | -106.48128 | 11869 ft | 173 kts | 125° |
| 2026-04-22 01:04 | 39.60713 | -106.46834 | 11860 ft | 173 kts | 125° |
| 2026-04-22 01:05 | 39.60017 | -106.45560 | 11855 ft | 172 kts | 128° |
| 2026-04-22 01:05 | 39.59260 | -106.44357 | 11851 ft | 171 kts | 133° |
| 2026-04-22 01:05 | 39.58418 | -106.43259 | 11841 ft | 171 kts | 141° |
| 2026-04-22 01:05 | 39.57456 | -106.42361 | 11828 ft | 171 kts | 146° |
| 2026-04-22 01:06 | 39.56441 | -106.41595 | 11825 ft | 170 kts | 157° |
| 2026-04-22 01:06 | 39.55357 | -106.41005 | 11853 ft | 167 kts | 157° |
| 2026-04-22 01:06 | 39.54307 | -106.40327 | 11850 ft | 168 kts | 154° |
| 2026-04-22 01:06 | 39.53265 | -106.39614 | 11817 ft | 170 kts | 154° |
| 2026-04-22 01:07 | 39.52214 | -106.38899 | 11813 ft | 170 kts | 153° |
| 2026-04-22 01:07 | 39.51191 | -106.38161 | 11873 ft | 167 kts | 151° |
| 2026-04-22 01:07 | 39.50208 | -106.37334 | 11894 ft | 168 kts | 145° |
| 2026-04-22 01:07 | 39.49274 | -106.36437 | 11906 ft | 168 kts | 146° |
| 2026-04-22 01:08 | 39.48318 | -106.35581 | 11889 ft | 166 kts | 146° |
| 2026-04-22 01:08 | 39.47378 | -106.34692 | 11725 ft | 166 kts | 146° |
| 2026-04-22 01:08 | 39.46409 | -106.33858 | 11595 ft | 169 kts | 151° |
| 2026-04-22 01:08 | 39.45394 | -106.33090 | 11611 ft | 168 kts | 152° |
| 2026-04-22 01:09 | 39.44388 | -106.32349 | 11658 ft | 166 kts | 154° |
| 2026-04-22 01:09 | 39.43338 | -106.31799 | 11730 ft | 161 kts | 168° |
| 2026-04-22 01:09 | 39.42254 | -106.31799 | 11890 ft | 152 kts | 194° |
| 2026-04-22 01:09 | 39.41283 | -106.32234 | 12135 ft | 143 kts | 202° |
| 2026-04-22 01:10 | 39.40361 | -106.32676 | 12322 ft | 141 kts | 199° |
| 2026-04-22 01:10 | 39.39400 | -106.33009 | 12455 ft | 144 kts | 196° |
| 2026-04-22 01:10 | 39.38402 | -106.33437 | 12470 ft | 152 kts | 203° |
| 2026-04-22 01:10 | 39.37423 | -106.34026 | 12431 ft | 162 kts | 207° |
| 2026-04-22 01:11 | 39.36394 | -106.34661 | 12418 ft | 160 kts | 206° |
| 2026-04-22 01:11 | 39.35409 | -106.35196 | 12318 ft | 153 kts | 200° |
| 2026-04-22 01:11 | 39.34369 | -106.35544 | 12111 ft | 155 kts | 193° |
| 2026-04-22 01:11 | 39.33311 | -106.35813 | 11929 ft | 155 kts | 192° |
| 2026-04-22 01:12 | 39.32234 | -106.36031 | 11709 ft | 156 kts | 189° |
| 2026-04-22 01:12 | 39.31184 | -106.36159 | 11665 ft | 146 kts | 189° |
| 2026-04-22 01:12 | 39.30194 | -106.36222 | 11628 ft | 144 kts | 178° |
| 2026-04-22 01:12 | 39.29216 | -106.35992 | 11628 ft | 139 kts | 172° |
| 2026-04-22 01:13 | 39.28256 | -106.35731 | 11563 ft | 141 kts | 172° |
| 2026-04-22 01:13 | 39.27291 | -106.35475 | 11476 ft | 143 kts | 172° |
| 2026-04-22 01:13 | 39.26300 | -106.35236 | 11416 ft | 145 kts | 173° |
| 2026-04-22 01:13 | 39.25305 | -106.34991 | 11330 ft | 146 kts | 174° |
| 2026-04-22 01:14 | 39.24301 | -106.34750 | 11272 ft | 146 kts | 174° |
| 2026-04-22 01:14 | 39.23304 | -106.34514 | 11207 ft | 147 kts | 172° |
| 2026-04-22 01:14 | 39.22305 | -106.34251 | 11148 ft | 146 kts | 171° |
| 2026-04-22 01:14 | 39.21336 | -106.34023 | 11035 ft | 137 kts | 174° |
| 2026-04-22 01:15 | 39.20454 | -106.33696 | 11100 ft | 118 kts | 168° |
| 2026-04-22 01:15 | 39.19677 | -106.33418 | 10979 ft | 120 kts | 172° |
| 2026-04-22 01:15 | 39.18851 | -106.33241 | 10857 ft | 119 kts | 168° |
| 2026-04-22 01:15 | 39.18259 | -106.32535 | 10747 ft | 129 kts | 113° |
| 2026-04-22 01:16 | 39.18304 | -106.31396 | 10740 ft | 126 kts | 71° |
| 2026-04-22 01:16 | 39.18861 | -106.30653 | 10692 ft | 119 kts | 19° |
| 2026-04-22 01:16 | 39.19625 | -106.30876 | 10424 ft | 119 kts | 328° |
| 2026-04-22 01:16 | 39.20358 | -106.31281 | 10148 ft | 115 kts | 341° |
| 2026-04-22 01:17 | 39.21139 | -106.31463 | 9953 ft | 108 kts | 345° |
| 2026-04-22 01:17 | 39.21781 | -106.31611 | 9954 ft | 79 kts | 352° |
| 2026-04-22 01:17 | 39.22207 | -106.31705 | 9953 ft | 47 kts | 352° |
| 2026-04-22 01:17 | 39.22469 | -106.31763 | 9948 ft | 18 kts | 357° |
| 2026-04-22 01:18 | 39.22485 | -106.31751 | 9949 ft | 11 kts | 102° |
| 2026-04-22 01:18 | 39.22485 | -106.31645 | 9959 ft | 11 kts | 112° |
| 2026-04-22 01:18 | 39.22432 | -106.31594 | 9964 ft | 7 kts | 175° |
| 2026-04-22 01:18 | 39.22419 | -106.31599 | 9963 ft | 0 kts | 221° |
| 2026-04-22 01:22 | 39.22415 | -106.31607 | 9964 ft | 0 kts | 235° |